sensor_id;sensor_type;location;lat;lon;timestamp;P1;durP1;ratioP1;P2;durP2;ratioP2
42846;SDS011;28495;49.916;14.536;2022-08-30T00:03:15;3.08;;;1.30;;
42846;SDS011;28495;49.916;14.536;2022-08-30T00:08:36;4.07;;;1.20;;
42846;SDS011;28495;49.916;14.536;2022-08-30T00:13:58;4.78;;;1.58;;
42846;SDS011;28495;49.916;14.536;2022-08-30T00:19:19;3.70;;;1.40;;
42846;SDS011;28495;49.916;14.536;2022-08-30T00:24:40;3.28;;;1.27;;
42846;SDS011;28495;49.916;14.536;2022-08-30T00:30:01;2.33;;;1.38;;
42846;SDS011;28495;49.916;14.536;2022-08-30T00:35:22;2.00;;;1.30;;
42846;SDS011;28495;49.916;14.536;2022-08-30T00:40:43;2.22;;;1.50;;
42846;SDS011;28495;49.916;14.536;2022-08-30T00:46:05;4.65;;;1.75;;
42846;SDS011;28495;49.916;14.536;2022-08-30T00:51:27;3.63;;;1.20;;
42846;SDS011;28495;49.916;14.536;2022-08-30T00:56:51;2.95;;;1.60;;
42846;SDS011;28495;49.916;14.536;2022-08-30T01:02:12;2.70;;;1.10;;
42846;SDS011;28495;49.916;14.536;2022-08-30T01:07:33;2.38;;;1.20;;
42846;SDS011;28495;49.916;14.536;2022-08-30T01:12:54;3.42;;;1.30;;
42846;SDS011;28495;49.916;14.536;2022-08-30T01:18:16;4.38;;;1.48;;
42846;SDS011;28495;49.916;14.536;2022-08-30T01:23:42;2.80;;;1.55;;
42846;SDS011;28495;49.916;14.536;2022-08-30T01:29:07;4.15;;;1.45;;
42846;SDS011;28495;49.916;14.536;2022-08-30T01:34:31;1.77;;;1.45;;
42846;SDS011;28495;49.916;14.536;2022-08-30T01:39:52;2.55;;;1.20;;
42846;SDS011;28495;49.916;14.536;2022-08-30T01:45:12;1.20;;;1.05;;
42846;SDS011;28495;49.916;14.536;2022-08-30T01:50:33;3.65;;;1.60;;
42846;SDS011;28495;49.916;14.536;2022-08-30T01:55:57;3.03;;;1.55;;
42846;SDS011;28495;49.916;14.536;2022-08-30T02:01:19;4.00;;;2.30;;
42846;SDS011;28495;49.916;14.536;2022-08-30T02:06:42;6.00;;;2.08;;
42846;SDS011;28495;49.916;14.536;2022-08-30T02:12:04;3.30;;;1.95;;
42846;SDS011;28495;49.916;14.536;2022-08-30T02:17:27;5.15;;;1.95;;
42846;SDS011;28495;49.916;14.536;2022-08-30T02:22:48;2.58;;;1.60;;
42846;SDS011;28495;49.916;14.536;2022-08-30T02:28:10;3.13;;;2.00;;
42846;SDS011;28495;49.916;14.536;2022-08-30T02:33:34;3.28;;;1.45;;
42846;SDS011;28495;49.916;14.536;2022-08-30T02:38:59;2.00;;;1.38;;
42846;SDS011;28495;49.916;14.536;2022-08-30T02:44:20;4.18;;;2.13;;
42846;SDS011;28495;49.916;14.536;2022-08-30T02:49:41;2.72;;;1.38;;
42846;SDS011;28495;49.916;14.536;2022-08-30T02:55:02;3.63;;;1.52;;
42846;SDS011;28495;49.916;14.536;2022-08-30T03:00:24;2.78;;;1.90;;
42846;SDS011;28495;49.916;14.536;2022-08-30T03:05:45;2.90;;;1.60;;
42846;SDS011;28495;49.916;14.536;2022-08-30T03:11:06;4.57;;;2.13;;
42846;SDS011;28495;49.916;14.536;2022-08-30T03:16:26;5.90;;;2.00;;
42846;SDS011;28495;49.916;14.536;2022-08-30T03:21:47;4.70;;;2.13;;
42846;SDS011;28495;49.916;14.536;2022-08-30T03:27:10;5.10;;;2.15;;
42846;SDS011;28495;49.916;14.536;2022-08-30T03:32:32;3.28;;;2.03;;
42846;SDS011;28495;49.916;14.536;2022-08-30T03:37:53;3.10;;;1.98;;
42846;SDS011;28495;49.916;14.536;2022-08-30T03:43:15;3.45;;;2.35;;
42846;SDS011;28495;49.916;14.536;2022-08-30T03:48:36;5.40;;;2.30;;
42846;SDS011;28495;49.916;14.536;2022-08-30T03:53:57;5.05;;;2.17;;
42846;SDS011;28495;49.916;14.536;2022-08-30T03:59:19;3.85;;;1.92;;
42846;SDS011;28495;49.916;14.536;2022-08-30T04:04:40;4.75;;;2.38;;
42846;SDS011;28495;49.916;14.536;2022-08-30T04:10:02;4.28;;;2.53;;
42846;SDS011;28495;49.916;14.536;2022-08-30T04:15:24;4.13;;;2.50;;
42846;SDS011;28495;49.916;14.536;2022-08-30T04:20:45;7.05;;;2.30;;
42846;SDS011;28495;49.916;14.536;2022-08-30T04:26:06;7.40;;;2.38;;
42846;SDS011;28495;49.916;14.536;2022-08-30T04:31:28;9.10;;;2.40;;
42846;SDS011;28495;49.916;14.536;2022-08-30T04:36:51;4.20;;;2.38;;
42846;SDS011;28495;49.916;14.536;2022-08-30T04:42:12;2.72;;;1.92;;
42846;SDS011;28495;49.916;14.536;2022-08-30T04:47:33;6.68;;;2.50;;
42846;SDS011;28495;49.916;14.536;2022-08-30T04:52:54;3.28;;;1.88;;
42846;SDS011;28495;49.916;14.536;2022-08-30T04:58:15;5.68;;;2.20;;
42846;SDS011;28495;49.916;14.536;2022-08-30T05:03:35;5.35;;;2.13;;
42846;SDS011;28495;49.916;14.536;2022-08-30T05:08:57;6.00;;;2.20;;
42846;SDS011;28495;49.916;14.536;2022-08-30T05:14:20;8.00;;;2.40;;
42846;SDS011;28495;49.916;14.536;2022-08-30T05:19:40;4.55;;;2.42;;
42846;SDS011;28495;49.916;14.536;2022-08-30T05:25:02;8.50;;;2.60;;
42846;SDS011;28495;49.916;14.536;2022-08-30T05:30:25;6.60;;;2.80;;
42846;SDS011;28495;49.916;14.536;2022-08-30T05:35:47;5.65;;;2.40;;
42846;SDS011;28495;49.916;14.536;2022-08-30T05:41:08;4.65;;;2.17;;
42846;SDS011;28495;49.916;14.536;2022-08-30T05:46:30;4.78;;;2.10;;
42846;SDS011;28495;49.916;14.536;2022-08-30T05:51:54;5.55;;;2.85;;
42846;SDS011;28495;49.916;14.536;2022-08-30T05:57:16;4.90;;;3.17;;
42846;SDS011;28495;49.916;14.536;2022-08-30T06:02:36;5.10;;;2.70;;
42846;SDS011;28495;49.916;14.536;2022-08-30T06:07:57;4.13;;;2.75;;
42846;SDS011;28495;49.916;14.536;2022-08-30T06:13:18;8.27;;;2.90;;
42846;SDS011;28495;49.916;14.536;2022-08-30T06:18:39;5.30;;;2.97;;
42846;SDS011;28495;49.916;14.536;2022-08-30T06:24:00;5.35;;;2.78;;
42846;SDS011;28495;49.916;14.536;2022-08-30T06:29:23;5.70;;;3.40;;
42846;SDS011;28495;49.916;14.536;2022-08-30T06:34:44;5.50;;;3.13;;
42846;SDS011;28495;49.916;14.536;2022-08-30T06:40:05;8.45;;;3.08;;
42846;SDS011;28495;49.916;14.536;2022-08-30T06:45:26;7.55;;;2.95;;
42846;SDS011;28495;49.916;14.536;2022-08-30T06:50:51;5.20;;;2.50;;
42846;SDS011;28495;49.916;14.536;2022-08-30T06:56:14;6.72;;;2.90;;
42846;SDS011;28495;49.916;14.536;2022-08-30T07:01:37;6.32;;;3.10;;
42846;SDS011;28495;49.916;14.536;2022-08-30T07:06:58;4.32;;;2.70;;
42846;SDS011;28495;49.916;14.536;2022-08-30T07:12:20;6.13;;;3.20;;
42846;SDS011;28495;49.916;14.536;2022-08-30T07:17:40;5.00;;;2.80;;
42846;SDS011;28495;49.916;14.536;2022-08-30T07:28:41;6.30;;;3.15;;
42846;SDS011;28495;49.916;14.536;2022-08-30T07:34:04;7.28;;;4.30;;
42846;SDS011;28495;49.916;14.536;2022-08-30T07:39:27;5.03;;;3.47;;
42846;SDS011;28495;49.916;14.536;2022-08-30T07:44:50;6.95;;;3.30;;
42846;SDS011;28495;49.916;14.536;2022-08-30T07:50:16;6.30;;;3.47;;
42846;SDS011;28495;49.916;14.536;2022-08-30T07:55:36;6.65;;;3.67;;
42846;SDS011;28495;49.916;14.536;2022-08-30T08:00:58;6.93;;;4.15;;
42846;SDS011;28495;49.916;14.536;2022-08-30T08:06:20;5.15;;;3.92;;
42846;SDS011;28495;49.916;14.536;2022-08-30T08:11:42;6.30;;;3.58;;
42846;SDS011;28495;49.916;14.536;2022-08-30T08:17:03;5.78;;;3.83;;
42846;SDS011;28495;49.916;14.536;2022-08-30T08:22:24;6.47;;;3.70;;
42846;SDS011;28495;49.916;14.536;2022-08-30T08:27:46;9.90;;;3.60;;
42846;SDS011;28495;49.916;14.536;2022-08-30T08:33:08;4.22;;;3.40;;
42846;SDS011;28495;49.916;14.536;2022-08-30T08:38:30;6.00;;;3.72;;
42846;SDS011;28495;49.916;14.536;2022-08-30T08:43:51;5.72;;;3.92;;
42846;SDS011;28495;49.916;14.536;2022-08-30T08:49:12;8.07;;;4.30;;
42846;SDS011;28495;49.916;14.536;2022-08-30T08:54:35;5.78;;;3.55;;
42846;SDS011;28495;49.916;14.536;2022-08-30T09:00:06;5.03;;;3.00;;
42846;SDS011;28495;49.916;14.536;2022-08-30T09:05:38;5.45;;;3.30;;
42846;SDS011;28495;49.916;14.536;2022-08-30T09:11:04;5.43;;;3.75;;
42846;SDS011;28495;49.916;14.536;2022-08-30T09:28:08;7.43;;;4.15;;
42846;SDS011;28495;49.916;14.536;2022-08-30T09:33:31;5.32;;;3.47;;
42846;SDS011;28495;49.916;14.536;2022-08-30T09:38:57;6.38;;;3.20;;
42846;SDS011;28495;49.916;14.536;2022-08-30T09:44:22;8.93;;;3.60;;
42846;SDS011;28495;49.916;14.536;2022-08-30T09:49:47;6.10;;;3.00;;
42846;SDS011;28495;49.916;14.536;2022-08-30T10:00:54;5.88;;;3.85;;
42846;SDS011;28495;49.916;14.536;2022-08-30T10:06:27;11.63;;;5.85;;
42846;SDS011;28495;49.916;14.536;2022-08-30T10:17:55;8.27;;;4.50;;
42846;SDS011;28495;49.916;14.536;2022-08-30T10:23:28;9.13;;;4.90;;
42846;SDS011;28495;49.916;14.536;2022-08-30T10:34:28;10.02;;;4.63;;
42846;SDS011;28495;49.916;14.536;2022-08-30T10:40:02;6.03;;;4.00;;
42846;SDS011;28495;49.916;14.536;2022-08-30T10:45:47;10.15;;;4.28;;
42846;SDS011;28495;49.916;14.536;2022-08-30T10:51:15;10.60;;;4.20;;
42846;SDS011;28495;49.916;14.536;2022-08-30T10:56:47;10.82;;;4.68;;
42846;SDS011;28495;49.916;14.536;2022-08-30T11:08:12;4.65;;;2.85;;
42846;SDS011;28495;49.916;14.536;2022-08-30T11:13:56;4.97;;;2.97;;
42846;SDS011;28495;49.916;14.536;2022-08-30T11:19:27;3.63;;;2.57;;
42846;SDS011;28495;49.916;14.536;2022-08-30T11:35:50;3.72;;;2.45;;
42846;SDS011;28495;49.916;14.536;2022-08-30T11:41:13;6.63;;;2.53;;
42846;SDS011;28495;49.916;14.536;2022-08-30T11:46:57;3.75;;;2.50;;
42846;SDS011;28495;49.916;14.536;2022-08-30T11:52:25;4.43;;;2.58;;
42846;SDS011;28495;49.916;14.536;2022-08-30T11:58:06;8.27;;;2.10;;
42846;SDS011;28495;49.916;14.536;2022-08-30T12:03:31;4.82;;;2.25;;
42846;SDS011;28495;49.916;14.536;2022-08-30T12:08:54;3.55;;;2.08;;
42846;SDS011;28495;49.916;14.536;2022-08-30T12:14:42;3.45;;;1.50;;
42846;SDS011;28495;49.916;14.536;2022-08-30T12:25:42;2.83;;;1.80;;
42846;SDS011;28495;49.916;14.536;2022-08-30T12:31:07;3.10;;;1.67;;
42846;SDS011;28495;49.916;14.536;2022-08-30T12:36:33;3.97;;;2.08;;
42846;SDS011;28495;49.916;14.536;2022-08-30T12:47:46;3.70;;;1.80;;
42846;SDS011;28495;49.916;14.536;2022-08-30T12:53:12;3.25;;;2.10;;
42846;SDS011;28495;49.916;14.536;2022-08-30T12:58:49;2.60;;;1.60;;
42846;SDS011;28495;49.916;14.536;2022-08-30T13:04:17;5.30;;;2.10;;
42846;SDS011;28495;49.916;14.536;2022-08-30T13:09:41;5.18;;;1.63;;
42846;SDS011;28495;49.916;14.536;2022-08-30T13:20:39;3.95;;;1.80;;
42846;SDS011;28495;49.916;14.536;2022-08-30T13:26:00;2.40;;;1.73;;
42846;SDS011;28495;49.916;14.536;2022-08-30T13:31:21;4.90;;;2.10;;
42846;SDS011;28495;49.916;14.536;2022-08-30T13:36:45;4.75;;;1.88;;
42846;SDS011;28495;49.916;14.536;2022-08-30T13:42:07;3.85;;;2.03;;
42846;SDS011;28495;49.916;14.536;2022-08-30T13:47:48;4.47;;;2.33;;
42846;SDS011;28495;49.916;14.536;2022-08-30T13:53:09;3.63;;;1.98;;
42846;SDS011;28495;49.916;14.536;2022-08-30T13:58:31;4.47;;;2.05;;
42846;SDS011;28495;49.916;14.536;2022-08-30T14:03:52;2.40;;;2.00;;
42846;SDS011;28495;49.916;14.536;2022-08-30T14:09:33;4.22;;;2.20;;
42846;SDS011;28495;49.916;14.536;2022-08-30T14:14:54;3.17;;;1.90;;
42846;SDS011;28495;49.916;14.536;2022-08-30T14:20:19;4.20;;;2.35;;
42846;SDS011;28495;49.916;14.536;2022-08-30T14:25:40;4.05;;;2.30;;
42846;SDS011;28495;49.916;14.536;2022-08-30T14:31:01;8.15;;;2.55;;
42846;SDS011;28495;49.916;14.536;2022-08-30T14:36:21;5.78;;;2.67;;
42846;SDS011;28495;49.916;14.536;2022-08-30T14:41:48;3.83;;;2.08;;
42846;SDS011;28495;49.916;14.536;2022-08-30T14:47:11;3.25;;;2.20;;
42846;SDS011;28495;49.916;14.536;2022-08-30T14:52:32;3.60;;;1.90;;
42846;SDS011;28495;49.916;14.536;2022-08-30T14:57:53;3.78;;;2.10;;
42846;SDS011;28495;49.916;14.536;2022-08-30T15:03:14;4.43;;;2.53;;
42846;SDS011;28495;49.916;14.536;2022-08-30T15:08:35;2.22;;;2.00;;
42846;SDS011;28495;49.916;14.536;2022-08-30T15:13:56;5.18;;;2.60;;
42846;SDS011;28495;49.916;14.536;2022-08-30T15:19:17;6.35;;;2.58;;
42846;SDS011;28495;49.916;14.536;2022-08-30T15:24:38;4.03;;;2.20;;
42846;SDS011;28495;49.916;14.536;2022-08-30T15:30:00;3.22;;;2.28;;
42846;SDS011;28495;49.916;14.536;2022-08-30T15:35:21;4.68;;;1.80;;
42846;SDS011;28495;49.916;14.536;2022-08-30T15:40:42;6.88;;;2.38;;
42846;SDS011;28495;49.916;14.536;2022-08-30T15:46:21;2.60;;;1.90;;
42846;SDS011;28495;49.916;14.536;2022-08-30T15:51:50;3.17;;;1.70;;
42846;SDS011;28495;49.916;14.536;2022-08-30T15:57:14;6.07;;;2.13;;
42846;SDS011;28495;49.916;14.536;2022-08-30T16:02:35;4.00;;;1.95;;
42846;SDS011;28495;49.916;14.536;2022-08-30T16:07:58;7.55;;;2.13;;
42846;SDS011;28495;49.916;14.536;2022-08-30T16:13:19;4.80;;;2.40;;
42846;SDS011;28495;49.916;14.536;2022-08-30T16:18:40;2.53;;;1.80;;
42846;SDS011;28495;49.916;14.536;2022-08-30T16:24:01;4.32;;;1.73;;
42846;SDS011;28495;49.916;14.536;2022-08-30T16:29:23;6.85;;;2.65;;
42846;SDS011;28495;49.916;14.536;2022-08-30T16:34:44;2.50;;;1.98;;
42846;SDS011;28495;49.916;14.536;2022-08-30T16:40:05;4.38;;;2.20;;
42846;SDS011;28495;49.916;14.536;2022-08-30T16:45:28;4.35;;;2.10;;
42846;SDS011;28495;49.916;14.536;2022-08-30T16:50:54;2.88;;;1.85;;
42846;SDS011;28495;49.916;14.536;2022-08-30T16:56:17;8.80;;;3.08;;
42846;SDS011;28495;49.916;14.536;2022-08-30T17:01:41;4.35;;;2.25;;
42846;SDS011;28495;49.916;14.536;2022-08-30T17:07:23;4.82;;;1.85;;
42846;SDS011;28495;49.916;14.536;2022-08-30T17:12:44;2.88;;;2.17;;
42846;SDS011;28495;49.916;14.536;2022-08-30T17:18:05;5.93;;;2.70;;
42846;SDS011;28495;49.916;14.536;2022-08-30T17:23:28;5.22;;;1.95;;
42846;SDS011;28495;49.916;14.536;2022-08-30T17:28:49;6.38;;;2.30;;
42846;SDS011;28495;49.916;14.536;2022-08-30T17:34:10;2.70;;;1.98;;
42846;SDS011;28495;49.916;14.536;2022-08-30T17:39:32;3.78;;;1.83;;
42846;SDS011;28495;49.916;14.536;2022-08-30T17:44:55;2.88;;;1.65;;
42846;SDS011;28495;49.916;14.536;2022-08-30T17:50:20;3.70;;;1.75;;
42846;SDS011;28495;49.916;14.536;2022-08-30T17:55:46;5.07;;;2.40;;
42846;SDS011;28495;49.916;14.536;2022-08-30T18:01:09;2.78;;;1.98;;
42846;SDS011;28495;49.916;14.536;2022-08-30T18:06:33;3.97;;;1.77;;
42846;SDS011;28495;49.916;14.536;2022-08-30T18:11:54;3.28;;;1.95;;
42846;SDS011;28495;49.916;14.536;2022-08-30T18:17:15;4.03;;;2.08;;
42846;SDS011;28495;49.916;14.536;2022-08-30T18:22:36;2.05;;;1.70;;
42846;SDS011;28495;49.916;14.536;2022-08-30T18:27:57;1.90;;;1.40;;
42846;SDS011;28495;49.916;14.536;2022-08-30T18:33:18;5.45;;;1.85;;
42846;SDS011;28495;49.916;14.536;2022-08-30T18:38:39;6.93;;;2.00;;
42846;SDS011;28495;49.916;14.536;2022-08-30T18:44:02;2.40;;;1.90;;
42846;SDS011;28495;49.916;14.536;2022-08-30T18:49:43;3.33;;;1.98;;
42846;SDS011;28495;49.916;14.536;2022-08-30T18:55:03;4.55;;;2.35;;
42846;SDS011;28495;49.916;14.536;2022-08-30T19:00:25;5.97;;;1.67;;
42846;SDS011;28495;49.916;14.536;2022-08-30T19:05:46;2.70;;;1.80;;
42846;SDS011;28495;49.916;14.536;2022-08-30T19:11:07;3.35;;;1.85;;
42846;SDS011;28495;49.916;14.536;2022-08-30T19:16:28;3.72;;;1.88;;
42846;SDS011;28495;49.916;14.536;2022-08-30T19:21:49;7.30;;;2.00;;
42846;SDS011;28495;49.916;14.536;2022-08-30T19:27:11;3.13;;;2.13;;
42846;SDS011;28495;49.916;14.536;2022-08-30T19:32:32;10.15;;;2.13;;
42846;SDS011;28495;49.916;14.536;2022-08-30T19:37:53;4.25;;;1.95;;
42846;SDS011;28495;49.916;14.536;2022-08-30T19:43:14;2.60;;;1.80;;
42846;SDS011;28495;49.916;14.536;2022-08-30T19:48:38;5.45;;;2.03;;
42846;SDS011;28495;49.916;14.536;2022-08-30T19:54:02;2.17;;;1.98;;
42846;SDS011;28495;49.916;14.536;2022-08-30T19:59:27;3.45;;;2.30;;
42846;SDS011;28495;49.916;14.536;2022-08-30T20:04:49;2.70;;;2.10;;
42846;SDS011;28495;49.916;14.536;2022-08-30T20:10:10;2.30;;;2.10;;
42846;SDS011;28495;49.916;14.536;2022-08-30T20:15:33;3.45;;;2.50;;
42846;SDS011;28495;49.916;14.536;2022-08-30T20:20:54;2.30;;;1.92;;
42846;SDS011;28495;49.916;14.536;2022-08-30T20:26:16;5.28;;;2.22;;
42846;SDS011;28495;49.916;14.536;2022-08-30T20:31:37;3.55;;;2.50;;
42846;SDS011;28495;49.916;14.536;2022-08-30T20:36:58;2.90;;;2.17;;
42846;SDS011;28495;49.916;14.536;2022-08-30T20:42:19;3.25;;;2.45;;
42846;SDS011;28495;49.916;14.536;2022-08-30T20:47:40;4.05;;;2.55;;
42846;SDS011;28495;49.916;14.536;2022-08-30T20:53:02;3.55;;;2.40;;
42846;SDS011;28495;49.916;14.536;2022-08-30T20:58:23;5.00;;;2.65;;
42846;SDS011;28495;49.916;14.536;2022-08-30T21:03:44;4.28;;;2.58;;
42846;SDS011;28495;49.916;14.536;2022-08-30T21:09:07;2.70;;;2.40;;
42846;SDS011;28495;49.916;14.536;2022-08-30T21:14:28;3.72;;;2.42;;
42846;SDS011;28495;49.916;14.536;2022-08-30T21:19:49;3.25;;;2.63;;
42846;SDS011;28495;49.916;14.536;2022-08-30T21:25:13;4.03;;;2.55;;
42846;SDS011;28495;49.916;14.536;2022-08-30T21:30:35;2.40;;;2.05;;
42846;SDS011;28495;49.916;14.536;2022-08-30T21:35:56;3.83;;;2.10;;
42846;SDS011;28495;49.916;14.536;2022-08-30T21:41:36;2.75;;;2.13;;
42846;SDS011;28495;49.916;14.536;2022-08-30T21:46:58;2.78;;;1.60;;
42846;SDS011;28495;49.916;14.536;2022-08-30T21:52:19;2.15;;;1.70;;
42846;SDS011;28495;49.916;14.536;2022-08-30T21:57:39;3.92;;;2.28;;
42846;SDS011;28495;49.916;14.536;2022-08-30T22:03:00;5.78;;;2.22;;
42846;SDS011;28495;49.916;14.536;2022-08-30T22:08:21;3.20;;;2.03;;
42846;SDS011;28495;49.916;14.536;2022-08-30T22:13:43;3.92;;;1.85;;
42846;SDS011;28495;49.916;14.536;2022-08-30T22:19:07;3.72;;;2.63;;
42846;SDS011;28495;49.916;14.536;2022-08-30T22:24:29;2.58;;;1.80;;
42846;SDS011;28495;49.916;14.536;2022-08-30T22:29:52;2.88;;;2.03;;
42846;SDS011;28495;49.916;14.536;2022-08-30T22:35:12;3.63;;;1.90;;
42846;SDS011;28495;49.916;14.536;2022-08-30T22:40:33;2.70;;;2.00;;
42846;SDS011;28495;49.916;14.536;2022-08-30T22:45:55;3.78;;;2.47;;
42846;SDS011;28495;49.916;14.536;2022-08-30T22:51:18;2.67;;;2.08;;
42846;SDS011;28495;49.916;14.536;2022-08-30T22:56:40;3.35;;;2.28;;
42846;SDS011;28495;49.916;14.536;2022-08-30T23:02:01;3.58;;;2.58;;
42846;SDS011;28495;49.916;14.536;2022-08-30T23:07:23;3.22;;;2.05;;
42846;SDS011;28495;49.916;14.536;2022-08-30T23:12:44;3.65;;;1.88;;
42846;SDS011;28495;49.916;14.536;2022-08-30T23:18:04;3.25;;;2.38;;
42846;SDS011;28495;49.916;14.536;2022-08-30T23:23:25;2.15;;;1.75;;
42846;SDS011;28495;49.916;14.536;2022-08-30T23:29:05;2.35;;;1.73;;
42846;SDS011;28495;49.916;14.536;2022-08-30T23:34:45;3.85;;;2.47;;
42846;SDS011;28495;49.916;14.536;2022-08-30T23:40:24;2.40;;;2.20;;
42846;SDS011;28495;49.916;14.536;2022-08-30T23:46:04;4.22;;;1.90;;
42846;SDS011;28495;49.916;14.536;2022-08-30T23:51:43;4.33;;;2.10;;
42846;SDS011;28495;49.916;14.536;2022-08-30T23:57:22;2.83;;;2.00;;
